Arnoldsville, Georgia
Current Conditions -  °F | °C
As of 7:51 PM on Monday 24 Nov 2014 (Local Time) from KAHN Reporting Station
Clear Clear  
Wind Chill: 64°   Ceiling: Unl
Heat Index: 64°   Visibility: 10mi
Dew Point: 51°   Wind: 5mph
Humidity: 63%   Direction: NA
Pressure: 29.89"   Gusts: NA
Location:  33.91°N, 83.22°W
Report Text: KAHN 250051Z VRB04KT 10SM CLR 18/11 A2989 RMK AO2 SLP119 T01780106
Loading
Personal Weather Stations






























Interactive Weather Map New forecast layout! Learn more

10-Day Weather Forecast

Advertisements
Track Severe Weather on mobile